Time;durP1;ratioP1;P1;durP2;ratioP2;P2;SDS_P1;SDS_P2;PMS_P1;PMS_P2;Temp;Humidity;BMP_temperature;BMP_pressure;BME280_temperature;BME280_humidity;BME280_pressure;Samples;Min_cycle;Max_cycle;Signal;HPM_P1;HPM_P2
2023/07/05 00:02:26;;;;;;;0.22;0.22;;;15.90;99.90;;;;;;5139631;27;20043;-66
2023/07/05 00:04:52;;;;;;;0.00;0.00;;;15.90;99.90;;;;;;5123896;27;20054;-65
2023/07/05 00:07:18;;;;;;;0.22;0.22;;;15.80;99.90;;;;;;5145850;27;20043;-65
2023/07/05 00:09:43;;;;;;;0.00;0.00;;;15.70;99.90;;;;;;5145530;27;20041;-65
2023/07/05 00:12:09;;;;;;;0.65;0.43;;;15.70;99.90;;;;;;5145343;27;20034;-66
2023/07/05 00:14:35;;;;;;;0.22;0.22;;;15.70;99.90;;;;;;5128406;27;20043;-66
2023/07/05 00:17:00;;;;;;;0.30;0.30;;;15.70;99.90;;;;;;5139497;27;20038;-65
2023/07/05 00:19:26;;;;;;;0.10;0.10;;;15.70;99.90;;;;;;5144163;27;20130;-66
2023/07/05 00:21:51;;;;;;;0.50;0.50;;;15.70;99.90;;;;;;5130173;27;20034;-67
2023/07/05 00:24:17;;;;;;;0.20;0.20;;;15.70;99.90;;;;;;5143663;27;20043;-67
2023/07/05 00:26:43;;;;;;;0.00;0.00;;;15.70;99.90;;;;;;5146036;27;20043;-66
2023/07/05 00:29:08;;;;;;;0.10;0.10;;;15.70;99.90;;;;;;5120543;27;20047;-66
2023/07/05 00:31:34;;;;;;;0.17;0.17;;;15.60;99.90;;;;;;5143719;27;20558;-66
2023/07/05 00:33:59;;;;;;;5.22;0.80;;;15.70;99.90;;;;;;5141654;27;20042;-65
2023/07/05 00:36:25;;;;;;;0.10;0.10;;;15.70;99.90;;;;;;5113402;27;20047;-66
2023/07/05 00:38:50;;;;;;;2.80;2.58;;;15.70;99.90;;;;;;5142631;27;20039;-66
2023/07/05 00:41:17;;;;;;;2.08;0.98;;;15.70;99.90;;;;;;5141120;27;20039;-66
2023/07/05 00:43:48;;;;;;;0.00;0.00;;;15.70;99.90;;;;;;5151378;27;20054;-66
2023/07/05 00:46:26;;;;;;;0.10;0.10;;;15.70;99.90;;;;;;5141515;27;20039;-66
2023/07/05 00:49:00;;;;;;;0.52;0.47;;;15.70;99.90;;;;;;5140796;27;20089;-66
2023/07/05 00:51:35;;;;;;;0.00;0.00;;;15.80;99.90;;;;;;5140514;27;20402;-66
2023/07/05 00:54:04;;;;;;;0.10;0.10;;;15.70;99.90;;;;;;5125271;27;20508;-66
2023/07/05 00:56:48;;;;;;;0.47;0.47;;;15.80;99.90;;;;;;5114809;28;20098;-65
2023/07/05 00:59:14;;;;;;;0.45;0.45;;;15.70;99.90;;;;;;5122970;27;20055;-66
2023/07/05 01:01:41;;;;;;;0.10;0.10;;;15.70;99.90;;;;;;5139748;27;20039;-66
2023/07/05 01:04:07;;;;;;;0.00;0.00;;;15.70;99.90;;;;;;5125193;27;20482;-66
2023/07/05 01:06:33;;;;;;;0.85;0.63;;;15.60;99.90;;;;;;5139835;27;20513;-65
2023/07/05 01:08:59;;;;;;;0.20;0.20;;;15.70;99.90;;;;;;5137099;27;20043;-66
2023/07/05 01:11:49;;;;;;;0.40;0.30;;;15.60;99.90;;;;;;5141319;27;20042;-66
2023/07/05 01:14:29;;;;;;;0.10;0.10;;;15.70;99.90;;;;;;5138882;27;20045;-66
2023/07/05 01:17:02;;;;;;;0.25;0.25;;;15.70;99.90;;;;;;5148067;27;20031;-66
2023/07/05 01:19:49;;;;;;;0.10;0.10;;;15.70;99.90;;;;;;5152936;27;20050;-66
2023/07/05 01:22:39;;;;;;;0.38;0.32;;;15.60;99.90;;;;;;5146563;27;20073;-66
2023/07/05 01:25:15;;;;;;;0.08;0.08;;;15.70;99.90;;;;;;5146101;27;20043;-66
2023/07/05 01:27:58;;;;;;;1.02;0.95;;;15.80;99.90;;;;;;5139348;27;20051;-66
2023/07/05 01:30:39;;;;;;;0.00;0.00;;;15.70;99.90;;;;;;5146730;27;20085;-65
2023/07/05 01:33:11;;;;;;;0.20;0.20;;;15.70;99.90;;;;;;5144235;27;20047;-65
2023/07/05 01:35:43;;;;;;;0.20;0.20;;;15.70;99.90;;;;;;5140585;27;20035;-66
2023/07/05 01:38:09;;;;;;;0.22;0.22;;;15.70;99.90;;;;;;5143913;27;20328;-66
2023/07/05 01:40:34;;;;;;;0.43;0.43;;;15.70;99.90;;;;;;5136133;27;20114;-66
2023/07/05 01:43:05;;;;;;;0.30;0.30;;;15.70;99.90;;;;;;5148262;27;20039;-65
2023/07/05 01:45:56;;;;;;;1.20;0.25;;;15.60;99.90;;;;;;5129216;27;20494;-66
2023/07/05 01:48:43;;;;;;;0.00;0.00;;;15.60;99.90;;;;;;5142795;27;20051;-66
2023/07/05 01:51:20;;;;;;;0.32;0.32;;;15.50;99.90;;;;;;5142641;27;20412;-66
2023/07/05 01:54:03;;;;;;;0.00;0.00;;;15.60;99.90;;;;;;5133315;27;20042;-66
2023/07/05 01:56:56;;;;;;;0.10;0.10;;;15.50;99.90;;;;;;5124220;27;20070;-66
2023/07/05 01:59:25;;;;;;;0.00;0.00;;;15.50;99.90;;;;;;5114765;27;20058;-66
2023/07/05 02:01:54;;;;;;;0.00;0.00;;;15.50;99.90;;;;;;5125258;27;20443;-66
2023/07/05 02:04:23;;;;;;;0.75;0.55;;;15.60;99.90;;;;;;5144234;27;20066;-66
2023/07/05 02:06:49;;;;;;;0.60;0.25;;;15.50;99.90;;;;;;5143484;27;20081;-65
2023/07/05 02:09:15;;;;;;;0.00;0.00;;;15.50;99.90;;;;;;5153638;27;20038;-66
2023/07/05 02:11:40;;;;;;;0.20;0.20;;;15.50;99.90;;;;;;5140548;27;20034;-66
2023/07/05 02:14:06;;;;;;;0.00;0.00;;;15.50;99.90;;;;;;5143624;27;20126;-66
2023/07/05 02:16:32;;;;;;;1.35;0.85;;;15.50;99.90;;;;;;5146927;27;20035;-66
2023/07/05 02:18:58;;;;;;;0.00;0.00;;;15.50;99.90;;;;;;5128626;27;20049;-66
2023/07/05 02:21:23;;;;;;;0.68;0.68;;;15.50;99.90;;;;;;5138917;27;20032;-66
2023/07/05 02:23:49;;;;;;;1.45;0.73;;;15.50;99.90;;;;;;5125893;27;20130;-66
2023/07/05 02:26:15;;;;;;;0.22;0.22;;;15.40;99.90;;;;;;5123532;27;20114;-66
2023/07/05 02:28:40;;;;;;;0.13;0.13;;;15.40;99.90;;;;;;5128978;27;20043;-66
2023/07/05 02:31:11;;;;;;;1.65;0.80;;;15.50;99.90;;;;;;5155908;27;20042;-66
2023/07/05 02:33:40;;;;;;;0.00;0.00;;;15.40;99.90;;;;;;5144768;27;20058;-66
2023/07/05 02:36:14;;;;;;;0.43;0.38;;;15.50;99.90;;;;;;5144666;27;20054;-65
2023/07/05 02:38:40;;;;;;;0.00;0.00;;;15.40;99.90;;;;;;5126779;27;20051;-66
2023/07/05 02:41:07;;;;;;;0.00;0.00;;;15.40;99.90;;;;;;5130327;27;20041;-66
2023/07/05 02:43:33;;;;;;;1.35;0.47;;;15.40;99.90;;;;;;5146235;27;20043;-66
2023/07/05 02:45:59;;;;;;;0.10;0.10;;;15.40;99.90;;;;;;5124553;27;20039;-66
2023/07/05 02:48:24;;;;;;;0.25;0.25;;;15.50;99.90;;;;;;5117993;27;20470;-65
2023/07/05 02:50:50;;;;;;;0.20;0.20;;;15.40;99.90;;;;;;5141906;27;20084;-66
2023/07/05 02:53:16;;;;;;;0.05;0.05;;;15.50;99.90;;;;;;5152364;27;20039;-66
2023/07/05 02:55:42;;;;;;;0.03;0.03;;;15.50;99.90;;;;;;5133485;27;20071;-67
2023/07/05 02:58:08;;;;;;;0.28;0.28;;;15.40;99.90;;;;;;5124176;27;20089;-67
2023/07/05 03:00:34;;;;;;;0.70;0.70;;;15.40;99.90;;;;;;5125180;27;20078;-66
2023/07/05 03:03:00;;;;;;;0.10;0.10;;;15.40;99.90;;;;;;5131671;27;20039;-67
2023/07/05 03:05:26;;;;;;;0.30;0.30;;;15.50;99.90;;;;;;5143880;27;20122;-66
2023/07/05 03:07:53;;;;;;;0.25;0.25;;;15.40;99.90;;;;;;5129297;27;20050;-68
2023/07/05 03:10:18;;;;;;;0.00;0.00;;;15.40;99.90;;;;;;5132899;27;20047;-67
2023/07/05 03:12:44;;;;;;;0.05;0.05;;;15.40;99.90;;;;;;5124152;27;20087;-67
2023/07/05 03:15:10;;;;;;;0.47;0.47;;;15.40;99.90;;;;;;5149976;27;20082;-67
2023/07/05 03:17:36;;;;;;;0.88;0.65;;;15.40;99.90;;;;;;5129778;27;20045;-66
2023/07/05 03:20:02;;;;;;;0.47;0.47;;;15.40;99.90;;;;;;5124250;27;20045;-66
2023/07/05 03:22:28;;;;;;;0.00;0.00;;;15.30;99.90;;;;;;5144137;27;20047;-67
2023/07/05 03:24:54;;;;;;;0.25;0.25;;;15.40;99.90;;;;;;5145647;27;20047;-67
2023/07/05 03:27:20;;;;;;;0.30;0.30;;;15.40;99.90;;;;;;5127027;27;20058;-67
2023/07/05 03:29:47;;;;;;;1.00;0.50;;;15.40;99.90;;;;;;5131325;27;20045;-67
2023/07/05 03:32:13;;;;;;;1.35;0.65;;;15.40;99.90;;;;;;5149906;27;20046;-67
2023/07/05 03:34:39;;;;;;;0.10;0.10;;;15.40;99.90;;;;;;5150546;27;20046;-65
2023/07/05 03:37:05;;;;;;;0.73;0.73;;;15.40;99.90;;;;;;5145412;27;20082;-67
2023/07/05 03:39:30;;;;;;;0.00;0.00;;;15.40;99.90;;;;;;5123108;27;20093;-68
2023/07/05 03:41:56;;;;;;;0.13;0.13;;;15.40;99.90;;;;;;5150885;27;20047;-66
2023/07/05 03:44:22;;;;;;;11.95;0.82;;;15.40;99.90;;;;;;5144091;27;20038;-66
2023/07/05 03:46:50;;;;;;;0.10;0.08;;;15.40;99.90;;;;;;5129711;27;20057;-66
2023/07/05 03:49:17;;;;;;;4.93;1.27;;;15.40;99.90;;;;;;5144719;27;20474;-66
2023/07/05 03:51:42;;;;;;;0.38;0.38;;;15.40;99.90;;;;;;5152091;27;20064;-66
2023/07/05 03:54:08;;;;;;;2.65;0.80;;;15.40;99.90;;;;;;5147388;27;20414;-67
2023/07/05 03:56:34;;;;;;;0.65;0.65;;;15.40;99.90;;;;;;5149149;27;20038;-67
2023/07/05 03:59:00;;;;;;;3.25;1.60;;;15.50;99.90;;;;;;5143462;27;20043;-66
2023/07/05 04:01:28;;;;;;;0.47;0.47;;;15.50;99.90;;;;;;5137032;27;20084;-66
2023/07/05 04:03:56;;;;;;;0.13;0.13;;;15.40;99.90;;;;;;5140152;27;20526;-66
2023/07/05 04:06:23;;;;;;;24.98;0.85;;;15.50;99.90;;;;;;5127849;27;20035;-67
2023/07/05 04:08:49;;;;;;;0.25;0.25;;;15.50;99.90;;;;;;5137811;27;20047;-66
2023/07/05 04:11:15;;;;;;;1.17;0.47;;;15.60;99.90;;;;;;5140406;27;20039;-67
2023/07/05 04:13:41;;;;;;;1.20;1.10;;;15.60;99.90;;;;;;5141296;27;20039;-66
2023/07/05 04:16:12;;;;;;;0.10;0.10;;;15.60;99.90;;;;;;5123328;27;20038;-66
2023/07/05 04:18:38;;;;;;;0.55;0.45;;;15.50;99.90;;;;;;5149582;27;20035;-66
2023/07/05 04:21:05;;;;;;;0.20;0.20;;;15.60;99.90;;;;;;5129771;27;20078;-67
2023/07/05 04:23:31;;;;;;;0.38;0.30;;;15.60;99.90;;;;;;5144646;27;20042;-67
2023/07/05 04:26:09;;;;;;;0.00;0.00;;;15.60;99.90;;;;;;5126452;27;20382;-67
2023/07/05 04:28:37;;;;;;;0.43;0.43;;;15.60;99.90;;;;;;5123114;27;20051;-67
2023/07/05 04:31:04;;;;;;;0.32;0.32;;;15.60;99.90;;;;;;5145310;27;20039;-67
2023/07/05 04:33:29;;;;;;;0.50;0.50;;;15.70;99.90;;;;;;5138112;27;20086;-67
2023/07/05 04:35:59;;;;;;;0.00;0.00;;;15.70;99.90;;;;;;5123618;27;20494;-67
2023/07/05 04:38:26;;;;;;;0.00;0.00;;;15.70;99.90;;;;;;5153311;27;20122;-67
2023/07/05 04:40:52;;;;;;;0.03;0.03;;;15.70;99.90;;;;;;5141786;27;20047;-67
2023/07/05 04:43:18;;;;;;;0.00;0.00;;;15.70;99.90;;;;;;5139602;27;20043;-67
2023/07/05 04:45:51;;;;;;;0.52;0.52;;;15.60;99.90;;;;;;5144019;27;20047;-67
2023/07/05 04:48:17;;;;;;;1.15;0.68;;;15.60;99.90;;;;;;5125735;27;20115;-68
2023/07/05 04:50:43;;;;;;;0.00;0.00;;;15.60;99.90;;;;;;5123048;27;20096;-66
2023/07/05 04:53:09;;;;;;;0.10;0.10;;;15.50;99.90;;;;;;5134782;27;20038;-67
2023/07/05 04:55:35;;;;;;;0.15;0.15;;;15.50;99.90;;;;;;5140625;27;20386;-67
2023/07/05 04:58:03;;;;;;;0.17;0.17;;;15.50;99.90;;;;;;5132193;27;20484;-67
2023/07/05 05:00:29;;;;;;;0.40;0.40;;;15.50;99.90;;;;;;5141390;27;20432;-66
2023/07/05 05:02:55;;;;;;;0.35;0.35;;;15.50;99.90;;;;;;5122740;27;20394;-66
2023/07/05 05:05:21;;;;;;;0.40;0.40;;;15.40;99.90;;;;;;5147655;27;20047;-67
2023/07/05 05:07:46;;;;;;;0.00;0.00;;;15.40;99.90;;;;;;5143401;27;20039;-67
2023/07/05 05:10:12;;;;;;;0.35;0.35;;;15.40;99.90;;;;;;5123141;27;20035;-69
2023/07/05 05:12:38;;;;;;;0.10;0.10;;;15.40;99.90;;;;;;5142201;27;20034;-67
2023/07/05 05:15:04;;;;;;;0.65;0.52;;;15.40;99.90;;;;;;5123371;28;20043;-67
2023/07/05 05:17:29;;;;;;;0.00;0.00;;;15.50;99.90;;;;;;5140180;27;20152;-66
2023/07/05 05:19:55;;;;;;;0.17;0.17;;;15.50;99.90;;;;;;5142222;27;20497;-68
2023/07/05 05:22:22;;;;;;;3.40;0.30;;;15.40;99.90;;;;;;5145735;27;20042;-67
2023/07/05 05:24:47;;;;;;;0.00;0.00;;;15.40;99.90;;;;;;5138618;27;20039;-67
2023/07/05 05:27:13;;;;;;;0.00;0.00;;;15.40;99.90;;;;;;5141018;27;20420;-68
2023/07/05 05:29:38;;;;;;;0.10;0.10;;;15.40;99.90;;;;;;5144012;27;20079;-67
2023/07/05 05:32:04;;;;;;;0.65;0.57;;;15.40;99.90;;;;;;5124531;27;20046;-68
2023/07/05 05:34:30;;;;;;;0.90;0.90;;;15.40;99.90;;;;;;5120826;27;20414;-68
2023/07/05 05:36:55;;;;;;;0.00;0.00;;;15.40;99.90;;;;;;5125055;27;20042;-68
2023/07/05 05:39:23;;;;;;;0.40;0.40;;;15.30;99.90;;;;;;5125208;27;20146;-68
2023/07/05 05:41:49;;;;;;;0.10;0.10;;;15.20;99.90;;;;;;5141493;27;20091;-68
2023/07/05 05:44:14;;;;;;;0.98;0.85;;;15.20;99.90;;;;;;5139457;27;20118;-69
2023/07/05 05:46:40;;;;;;;0.00;0.00;;;15.20;99.90;;;;;;5140729;27;20071;-68
2023/07/05 05:49:06;;;;;;;0.03;0.03;;;15.30;99.90;;;;;;5144123;27;20038;-68
2023/07/05 05:51:31;;;;;;;0.40;0.40;;;15.20;99.90;;;;;;5142983;27;20042;-68
2023/07/05 05:53:57;;;;;;;0.30;0.30;;;15.20;99.90;;;;;;5149691;27;20046;-68
2023/07/05 05:56:22;;;;;;;0.30;0.30;;;15.20;99.90;;;;;;5122076;27;20043;-68
2023/07/05 05:58:48;;;;;;;0.30;0.30;;;15.20;99.90;;;;;;5124915;27;20151;-68
2023/07/05 06:01:14;;;;;;;0.25;0.25;;;15.10;99.90;;;;;;5152252;27;20150;-67
2023/07/05 06:03:40;;;;;;;0.10;0.10;;;15.10;99.90;;;;;;5130486;27;20051;-67
2023/07/05 06:06:06;;;;;;;0.00;0.00;;;15.20;99.90;;;;;;5145605;27;20035;-68
2023/07/05 06:08:32;;;;;;;0.05;0.05;;;15.10;99.90;;;;;;5129410;27;20570;-68
2023/07/05 06:11:00;;;;;;;0.45;0.35;;;15.10;99.90;;;;;;5150626;27;20390;-67
2023/07/05 06:13:27;;;;;;;0.20;0.20;;;15.10;99.90;;;;;;5143625;27;20027;-68
2023/07/05 06:15:55;;;;;;;0.00;0.00;;;15.10;99.90;;;;;;5144398;27;20077;-69
2023/07/05 06:18:21;;;;;;;0.00;0.00;;;15.10;99.90;;;;;;5127212;27;20049;-67
2023/07/05 06:20:47;;;;;;;1.55;1.30;;;15.10;99.90;;;;;;5129391;27;20047;-68
2023/07/05 06:23:12;;;;;;;5.50;1.52;;;15.20;99.90;;;;;;5151004;27;20046;-68
2023/07/05 06:25:38;;;;;;;0.05;0.05;;;15.10;99.90;;;;;;5128937;27;20126;-68
2023/07/05 06:28:03;;;;;;;0.28;0.28;;;15.20;99.90;;;;;;5147884;27;20126;-67
2023/07/05 06:30:29;;;;;;;0.00;0.00;;;15.30;99.90;;;;;;5144239;27;20444;-67
2023/07/05 06:32:55;;;;;;;0.00;0.00;;;15.40;99.90;;;;;;5147489;27;20137;-68
2023/07/05 06:35:21;;;;;;;0.28;0.28;;;15.50;99.90;;;;;;5125567;27;20099;-68
2023/07/05 06:37:46;;;;;;;0.22;0.22;;;15.50;99.90;;;;;;5150899;27;20047;-67
2023/07/05 06:40:12;;;;;;;0.55;0.55;;;15.50;99.90;;;;;;5126020;27;20482;-68
2023/07/05 06:42:38;;;;;;;0.70;0.15;;;15.60;99.90;;;;;;5128237;27;20043;-68
2023/07/05 06:45:04;;;;;;;5.72;0.70;;;15.60;99.90;;;;;;5145473;27;20478;-68
2023/07/05 06:47:30;;;;;;;0.47;0.47;;;15.70;99.90;;;;;;5145843;27;20125;-68
2023/07/05 06:49:57;;;;;;;8.38;1.00;;;15.70;99.90;;;;;;5143907;27;20129;-68
2023/07/05 06:52:23;;;;;;;0.10;0.10;;;15.70;99.90;;;;;;5145724;27;20047;-67
2023/07/05 06:54:49;;;;;;;0.10;0.10;;;15.70;99.90;;;;;;5148197;27;20043;-67
2023/07/05 06:57:15;;;;;;;2.13;1.10;;;15.70;99.90;;;;;;5151095;27;20099;-67
2023/07/05 06:59:44;;;;;;;0.03;0.03;;;15.70;99.90;;;;;;5128061;27;20047;-67
2023/07/05 07:02:10;;;;;;;0.00;0.00;;;15.80;99.90;;;;;;5154567;27;20482;-68
2023/07/05 07:04:36;;;;;;;0.30;0.30;;;15.70;99.90;;;;;;5146864;27;20041;-69
2023/07/05 07:07:02;;;;;;;0.30;0.30;;;15.70;99.90;;;;;;5120045;27;20047;-69
2023/07/05 07:09:27;;;;;;;0.60;0.60;;;15.60;99.90;;;;;;5149790;27;20085;-67
2023/07/05 07:11:53;;;;;;;0.20;0.20;;;15.60;99.90;;;;;;5147485;27;20125;-67
2023/07/05 07:14:18;;;;;;;0.00;0.00;;;15.50;99.90;;;;;;5133444;27;20059;-70
2023/07/05 07:16:44;;;;;;;0.15;0.15;;;15.50;99.90;;;;;;5146225;27;20034;-67
2023/07/05 07:19:10;;;;;;;0.30;0.30;;;15.40;99.90;;;;;;5145946;27;20105;-70
2023/07/05 07:21:38;;;;;;;0.00;0.00;;;15.30;99.90;;;;;;5122321;27;20507;-68
2023/07/05 07:24:04;;;;;;;0.35;0.35;;;15.30;99.90;;;;;;5124393;27;20043;-67
2023/07/05 07:26:30;;;;;;;0.00;0.00;;;14.80;99.90;;;;;;5128580;27;20039;-67
2023/07/05 07:28:56;;;;;;;0.13;0.13;;;14.60;99.90;;;;;;5145683;27;20062;-66
2023/07/05 07:31:28;;;;;;;0.00;0.00;;;14.30;99.90;;;;;;5136887;27;20078;-66
2023/07/05 07:33:54;;;;;;;0.00;0.00;;;14.10;99.90;;;;;;5148853;27;20050;-66
2023/07/05 07:36:25;;;;;;;0.00;0.00;;;14.00;99.90;;;;;;5124324;27;20039;-66
2023/07/05 07:38:51;;;;;;;0.00;0.00;;;14.00;99.90;;;;;;5141787;27;20068;-66
2023/07/05 07:41:43;;;;;;;0.10;0.10;;;13.80;99.90;;;;;;5143050;27;20461;-66
2023/07/05 07:44:10;;;;;;;0.00;0.00;;;13.70;99.90;;;;;;5139282;27;20055;-66
2023/07/05 07:46:38;;;;;;;0.00;0.00;;;13.60;99.90;;;;;;5123825;27;20393;-66
2023/07/05 07:49:05;;;;;;;0.30;0.30;;;13.60;99.90;;;;;;5131168;27;20066;-66
2023/07/05 07:51:34;;;;;;;0.08;0.08;;;13.50;99.90;;;;;;5128218;27;20043;-67
2023/07/05 07:54:00;;;;;;;0.20;0.20;;;13.30;99.90;;;;;;5131309;27;20397;-66
2023/07/05 07:56:26;;;;;;;0.00;0.00;;;13.30;99.90;;;;;;5142760;27;20936;-66
2023/07/05 07:58:54;;;;;;;0.00;0.00;;;13.20;99.90;;;;;;5140107;27;20066;-66
2023/07/05 08:01:26;;;;;;;4.65;0.57;;;13.10;99.90;;;;;;5124399;27;20066;-66
2023/07/05 08:03:57;;;;;;;0.00;0.00;;;13.10;99.90;;;;;;5142531;27;20043;-67
2023/07/05 08:06:34;;;;;;;0.30;0.17;;;13.10;99.90;;;;;;5144950;27;20019;-65
2023/07/05 08:09:00;;;;;;;0.00;0.00;;;13.20;99.90;;;;;;5148221;27;20039;-70
2023/07/05 08:11:26;;;;;;;0.32;0.32;;;13.20;99.90;;;;;;5143168;27;20027;-67
2023/07/05 08:13:52;;;;;;;0.10;0.10;;;13.10;99.90;;;;;;5121979;27;20038;-67
2023/07/05 08:16:17;;;;;;;0.10;0.10;;;13.10;99.90;;;;;;5143647;27;20541;-66
2023/07/05 08:18:44;;;;;;;0.00;0.00;;;13.20;99.90;;;;;;5141660;27;20074;-67
2023/07/05 08:21:12;;;;;;;0.40;0.40;;;13.20;99.90;;;;;;5123654;27;20043;-66
2023/07/05 08:23:39;;;;;;;0.00;0.00;;;13.30;99.90;;;;;;5130518;27;20047;-67
2023/07/05 08:26:04;;;;;;;0.32;0.30;;;13.20;99.90;;;;;;5141745;27;20039;-68
2023/07/05 08:28:30;;;;;;;0.00;0.00;;;13.20;99.90;;;;;;5141925;27;20039;-67
2023/07/05 08:30:57;;;;;;;6.68;0.90;;;13.10;99.90;;;;;;5147001;27;20471;-67
2023/07/05 08:33:26;;;;;;;4.72;1.85;;;13.20;99.90;;;;;;5142234;27;20216;-67
2023/07/05 08:36:12;;;;;;;0.00;0.00;;;13.20;99.90;;;;;;5140300;27;20043;-67
2023/07/05 08:38:49;;;;;;;0.00;0.00;;;13.30;99.90;;;;;;5109764;27;20089;-67
2023/07/05 08:41:36;;;;;;;0.22;0.22;;;13.30;99.90;;;;;;5142197;27;20054;-67
2023/07/05 08:44:09;;;;;;;0.00;0.00;;;13.50;99.90;;;;;;5142076;27;20424;-68
2023/07/05 08:46:37;;;;;;;0.17;0.17;;;13.60;99.90;;;;;;5143952;27;20117;-67
2023/07/05 08:49:12;;;;;;;0.43;0.43;;;13.70;99.90;;;;;;5144230;27;20042;-68
2023/07/05 08:51:40;;;;;;;0.00;0.00;;;13.80;99.90;;;;;;5143410;27;20194;-67
2023/07/05 08:54:10;;;;;;;0.00;0.00;;;14.00;99.90;;;;;;5126407;27;20079;-67
2023/07/05 08:56:48;;;;;;;0.90;0.75;;;14.10;99.90;;;;;;5123681;28;20046;-67
2023/07/05 08:59:29;;;;;;;2.75;1.10;;;14.20;99.90;;;;;;5119394;28;20400;-67
2023/07/05 09:01:56;;;;;;;0.00;0.00;;;14.30;99.90;;;;;;5141053;27;20035;-67
2023/07/05 09:04:28;;;;;;;0.00;0.00;;;14.40;99.90;;;;;;5146483;27;20377;-67
2023/07/05 09:07:26;;;;;;;0.10;0.10;;;14.50;99.90;;;;;;5122477;27;20043;-68
2023/07/05 09:10:13;;;;;;;1.17;1.00;;;14.70;99.90;;;;;;5145586;27;20077;-68
2023/07/05 09:12:55;;;;;;;0.00;0.00;;;15.10;99.90;;;;;;5121833;27;20045;-67
2023/07/05 09:15:25;;;;;;;0.00;0.00;;;15.40;99.90;;;;;;5120643;27;20050;-67
2023/07/05 09:18:10;;;;;;;0.00;0.00;;;15.50;99.90;;;;;;5120015;28;20117;-67
2023/07/05 09:21:11;;;;;;;0.10;0.10;;;15.40;99.90;;;;;;5140675;27;20050;-68
2023/07/05 09:24:19;;;;;;;0.00;0.00;;;15.30;99.90;;;;;;5129931;27;20064;-68
2023/07/05 09:26:58;;;;;;;0.00;0.00;;;15.10;99.90;;;;;;5105233;28;20051;-67
2023/07/05 09:29:38;;;;;;;0.20;0.20;;;14.90;99.90;;;;;;5146409;27;20039;-67
2023/07/05 09:32:19;;;;;;;0.00;0.00;;;14.80;99.90;;;;;;5140283;27;20051;-67
2023/07/05 09:34:55;;;;;;;0.00;0.00;;;14.60;99.90;;;;;;5140803;27;20040;-67
2023/07/05 09:37:25;;;;;;;0.10;0.10;;;14.60;99.90;;;;;;5147148;27;20030;-68
2023/07/05 09:40:09;;;;;;;0.00;0.00;;;14.60;99.90;;;;;;5149516;27;20375;-68
2023/07/05 09:42:41;;;;;;;0.00;0.00;;;14.70;99.90;;;;;;5124878;27;20416;-68
2023/07/05 09:45:14;;;;;;;0.00;0.00;;;14.80;99.90;;;;;;5144250;27;20038;-67
2023/07/05 09:47:41;;;;;;;0.00;0.00;;;15.10;99.90;;;;;;5145848;27;20099;-68
2023/07/05 09:50:16;;;;;;;0.00;0.00;;;15.30;99.90;;;;;;5153459;27;20045;-68
2023/07/05 09:52:45;;;;;;;0.00;0.00;;;15.20;99.90;;;;;;5154350;27;20485;-69
2023/07/05 09:55:16;;;;;;;0.05;0.05;;;15.10;99.90;;;;;;5127350;27;20142;-68
2023/07/05 09:57:42;;;;;;;0.00;0.00;;;14.90;99.90;;;;;;5146156;27;20053;-68
2023/07/05 10:00:25;;;;;;;0.00;0.00;;;14.90;99.90;;;;;;5148966;27;20146;-68
2023/07/05 10:02:53;;;;;;;0.00;0.00;;;15.00;99.90;;;;;;5143190;27;20035;-68
2023/07/05 10:05:28;;;;;;;0.00;0.00;;;15.00;99.90;;;;;;5151337;27;20519;-68
2023/07/05 10:08:00;;;;;;;0.00;0.00;;;15.20;99.90;;;;;;5125948;27;20122;-68
2023/07/05 10:10:36;;;;;;;0.03;0.03;;;15.30;99.90;;;;;;5147453;27;20518;-68
2023/07/05 10:13:25;;;;;;;0.00;0.00;;;15.20;99.90;;;;;;5144718;27;20023;-68
2023/07/05 10:15:57;;;;;;;0.00;0.00;;;15.10;99.90;;;;;;5144187;27;20073;-68
2023/07/05 10:18:28;;;;;;;0.10;0.10;;;15.70;99.90;;;;;;5147099;27;20043;-68
2023/07/05 10:20:57;;;;;;;0.00;0.00;;;16.00;99.90;;;;;;5145496;27;20046;-67
2023/07/05 10:23:23;;;;;;;0.00;0.00;;;16.20;99.90;;;;;;5120879;27;20043;-68
2023/07/05 10:25:51;;;;;;;0.00;0.00;;;16.10;99.90;;;;;;5128810;27;20043;-68
2023/07/05 10:28:25;;;;;;;0.00;0.00;;;16.00;99.90;;;;;;5126914;27;20469;-69
2023/07/05 10:30:53;;;;;;;0.00;0.00;;;16.30;99.90;;;;;;5144031;27;20122;-69
2023/07/05 10:33:29;;;;;;;0.35;0.35;;;16.70;99.90;;;;;;5127386;27;20529;-69
2023/07/05 10:35:58;;;;;;;0.00;0.00;;;17.00;99.90;;;;;;5123616;27;20047;-69
2023/07/05 10:38:30;;;;;;;0.00;0.00;;;17.30;99.90;;;;;;5142889;27;20043;-70
2023/07/05 10:41:14;;;;;;;0.00;0.00;;;17.30;99.90;;;;;;5134444;27;20039;-69
2023/07/05 10:43:40;;;;;;;0.00;0.00;;;17.70;99.90;;;;;;5145252;27;20071;-70
2023/07/05 10:46:09;;;;;;;0.00;0.00;;;17.80;99.90;;;;;;5126044;27;20486;-68
2023/07/05 10:48:42;;;;;;;0.03;0.03;;;17.70;99.90;;;;;;5133379;27;20047;-68
2023/07/05 10:51:20;;;;;;;0.00;0.00;;;18.00;99.90;;;;;;5128217;27;20121;-69
2023/07/05 10:54:20;;;;;;;0.00;0.00;;;18.10;99.90;;;;;;5145719;27;20031;-68
2023/07/05 10:56:47;;;;;;;0.00;0.00;;;18.30;99.90;;;;;;5124812;27;20083;-68
2023/07/05 10:59:35;;;;;;;3.35;0.57;;;18.70;99.90;;;;;;5132403;27;20054;-68
2023/07/05 11:02:29;;;;;;;0.00;0.00;;;18.50;99.90;;;;;;5144383;27;20121;-67
2023/07/05 11:04:57;;;;;;;0.20;0.20;;;18.10;99.90;;;;;;5125338;27;20127;-67
2023/07/05 11:07:24;;;;;;;0.03;0.03;;;18.10;99.90;;;;;;5143309;27;20104;-68
2023/07/05 11:09:51;;;;;;;0.00;0.00;;;18.10;99.90;;;;;;5144811;27;20513;-68
2023/07/05 11:12:29;;;;;;;0.00;0.00;;;18.10;99.90;;;;;;5146591;27;20039;-68
2023/07/05 11:14:58;;;;;;;0.00;0.00;;;18.20;99.90;;;;;;5123594;27;20050;-68
2023/07/05 11:17:35;;;;;;;0.10;0.10;;;18.40;99.90;;;;;;5142766;27;20432;-68
2023/07/05 11:20:01;;;;;;;0.00;0.00;;;18.50;99.90;;;;;;5141399;27;20610;-68
2023/07/05 11:22:44;;;;;;;0.00;0.00;;;18.60;99.90;;;;;;5148684;27;20464;-67
2023/07/05 11:25:15;;;;;;;0.00;0.00;;;18.60;99.90;;;;;;5127703;27;20043;-67
2023/07/05 11:27:48;;;;;;;0.00;0.00;;;18.40;99.90;;;;;;5142602;27;20114;-66
2023/07/05 11:30:37;;;;;;;0.00;0.00;;;18.10;99.90;;;;;;5122033;27;20548;-67
2023/07/05 11:33:02;;;;;;;2.78;1.08;;;17.50;99.90;;;;;;5148709;27;20490;-67
2023/07/05 11:35:45;;;;;;;0.00;0.00;;;16.90;99.90;;;;;;5142216;27;20133;-68
2023/07/05 11:38:37;;;;;;;0.45;0.45;;;16.60;99.90;;;;;;5123656;27;20058;-68
2023/07/05 11:41:07;;;;;;;0.25;0.25;;;16.30;99.90;;;;;;5119692;27;20030;-67
2023/07/05 11:43:41;;;;;;;0.00;0.00;;;16.10;99.90;;;;;;5144443;27;20039;-67
2023/07/05 11:46:38;;;;;;;1.70;0.93;;;15.80;99.90;;;;;;5142680;27;20064;-67
2023/07/05 11:49:25;;;;;;;0.75;0.75;;;15.70;99.90;;;;;;5122348;27;20118;-68
2023/07/05 11:52:03;;;;;;;0.10;0.10;;;15.50;99.90;;;;;;5143488;27;20062;-67
2023/07/05 11:54:48;;;;;;;0.00;0.00;;;15.40;99.90;;;;;;5145973;27;20501;-68
2023/07/05 11:57:14;;;;;;;0.30;0.30;;;15.20;99.90;;;;;;5141283;27;20066;-67
2023/07/05 12:00:10;;;;;;;0.00;0.00;;;15.10;99.90;;;;;;5129197;27;20047;-68
2023/07/05 12:02:44;;;;;;;0.70;0.70;;;15.00;99.90;;;;;;5116896;27;20050;-66
2023/07/05 12:05:14;;;;;;;0.50;0.50;;;15.00;99.90;;;;;;5143446;27;20102;-66
2023/07/05 12:07:41;;;;;;;8.35;1.70;;;15.00;99.90;;;;;;5123247;27;20494;-67
2023/07/05 12:10:08;;;;;;;0.47;0.45;;;15.00;99.90;;;;;;5124936;27;20070;-66
2023/07/05 12:12:39;;;;;;;0.00;0.00;;;15.00;99.90;;;;;;5145249;27;20077;-67
2023/07/05 12:15:05;;;;;;;0.00;0.00;;;15.00;99.90;;;;;;5142067;27;20073;-66
2023/07/05 12:17:33;;;;;;;0.20;0.20;;;15.00;99.90;;;;;;5132395;27;20456;-71
2023/07/05 12:19:59;;;;;;;0.20;0.20;;;15.00;99.90;;;;;;5144520;27;20082;-68
2023/07/05 12:22:26;;;;;;;0.03;0.03;;;15.00;99.90;;;;;;5122515;27;20082;-67
2023/07/05 12:24:56;;;;;;;9.52;1.65;;;14.90;99.90;;;;;;5137699;27;20046;-66
2023/07/05 12:27:28;;;;;;;1.35;0.85;;;14.90;99.90;;;;;;5149414;27;20081;-67
2023/07/05 12:29:57;;;;;;;0.43;0.43;;;14.80;99.90;;;;;;5139831;27;20469;-68
2023/07/05 12:32:25;;;;;;;0.00;0.00;;;14.80;99.90;;;;;;5146634;27;20058;-66
2023/07/05 12:35:05;;;;;;;0.43;0.43;;;14.70;99.90;;;;;;5122493;27;20088;-67
2023/07/05 12:37:32;;;;;;;0.63;0.63;;;14.70;99.90;;;;;;5123704;27;20383;-66
2023/07/05 12:40:19;;;;;;;0.00;0.00;;;14.70;99.90;;;;;;5145012;27;20478;-65
2023/07/05 12:42:59;;;;;;;0.00;0.00;;;14.60;99.90;;;;;;5151864;27;20070;-67
2023/07/05 12:45:39;;;;;;;0.47;0.47;;;14.50;99.90;;;;;;5135852;27;20538;-65
2023/07/05 12:48:25;;;;;;;0.10;0.10;;;14.50;99.90;;;;;;5141837;27;20383;-65
2023/07/05 12:51:10;;;;;;;0.00;0.00;;;14.40;99.90;;;;;;5125058;27;20434;-65
2023/07/05 12:53:36;;;;;;;0.10;0.10;;;14.30;99.90;;;;;;5142756;27;20494;-66
2023/07/05 12:56:10;;;;;;;0.73;0.73;;;14.20;99.90;;;;;;5119284;27;20034;-66
2023/07/05 12:58:39;;;;;;;0.32;0.30;;;14.30;99.90;;;;;;5150384;27;20042;-66
2023/07/05 13:01:11;;;;;;;1.70;1.58;;;14.30;99.90;;;;;;5149452;27;20110;-66
2023/07/05 13:03:44;;;;;;;0.10;0.10;;;14.30;99.90;;;;;;5122210;27;20039;-66
2023/07/05 13:06:10;;;;;;;1.15;0.35;;;14.30;99.90;;;;;;5128398;27;20066;-66